메인 페이지
METAR-TAF:

METAR-TAF

공항 :

베이루트, 레바논

위도: 33-49N, 경도: 035-29E, 고도: 29m

현재 날씨관측

예보는 38분 전, 09:00시(UTC)에 발표되었습니다.
서남서6kt
온도 28°C
습도 66%
기압 1012 hPa
시정 10km 이상
고도 20000ft 상공 구름 많음

METAR: OLBA 200900Z 25006KT 9999 BKN200 28/21 Q1012 NOSIG

시각: 12:38 (09:38 UTC)

예보

예보는 5 시간 38분 전, 04:00시(UTC)에 발표되었습니다.
예보 대상 시간: 20일 06시부터 21일 12시까지 (UTC)
10kt, 순간 최대 풍속 20kt
시정: 8000m
고도 20000ft 상공 구름 많음
전환 중
20일 21시부터 20일 24시까지 (UTC)
여러 방향의 바람 5kt
전환 중
21일 09시부터 21일 12시까지 (UTC)
서남서13kt
일시적
20일 06시부터 21일 12시까지 (UTC)
시정: 4000m
연무

TAF: OLBA 200400Z 2006/2112 36010G20KT 8000 BKN200 BECMG 2021/2024 VRB05KT BECMG 2109/2112 24013KT TEMPO 2006/2112 4000 HZ

4,000개 이상의 공항 관측 자료 및 예보 (METAR 및 TAF 보고).

지도상에서 검색 가능한 기상관측소가 노란 점과 빨간 점으로 표시되어 있습니다.

기상관측소 명을 보려면 표시 위로 마우스를 이동하세요.

날씨 관측과 예보를 보려면 클릭하세요.

지도 변경 : 확대하려면 엑스 표시가 있는 녹색 버튼, 축소하려면 빼기 표시가 있는 녹색 버튼, 다음 페이지의 지도를 보려면 녹색 화살표를 클릭하세요.


METAR-TAF: